MST,Max TemperatureF,Mean TemperatureF,Min TemperatureF,Max Dew PointF,MeanDew PointF,Min DewpointF,Max Humidity, Mean Humidity, Min Humidity, Max Sea Level PressureIn, Mean Sea Level PressureIn, Min Sea Level PressureIn, Max VisibilityMiles, Mean VisibilityMiles, Min VisibilityMiles, Max Wind SpeedMPH, Mean Wind SpeedMPH, Max Gust SpeedMPH,PrecipitationIn, CloudCover, Events, WindDirDegrees
2012-12-1,33,27,21,32,25,18,100,92,86,29.81,29.74,29.65,10,5,0,14,4,,0.00,5,,343
2012-12-2,51,35,19,39,29,18,100,82,54,29.73,29.50,29.26,10,9,2,24,5,32,0.00,3,,214
2012-12-3,46,32,19,37,25,16,93,68,53,30.05,29.78,29.46,10,10,10,24,16,33,0.00,1,,305
2012-12-4,33,24,15,25,19,12,93,78,64,30.20,30.09,29.94,10,10,10,12,5,,0.00,1,,63
2012-12-5,48,38,28,34,27,21,80,68,53,29.93,29.75,29.60,10,10,10,18,8,24,0.00,1,,217
2012-12-6,39,28,15,25,20,12,93,71,42,30.01,29.96,29.89,10,10,10,14,9,22,0.00,1,,281
2012-12-7,28,22,15,25,19,12,100,89,80,29.98,29.91,29.77,10,7,1,12,6,,0.00,7,,65
2012-12-8,26,12,-2,21,10,-8,93,84,72,30.33,29.93,29.70,10,5,0,21,12,25,0.00,6,,8
2012-12-9,6,-5,-16,5,-7,-24,100,81,51,30.44,30.25,29.86,10,10,10,15,8,,0.00,0,,209
2012-12-10,28,16,5,25,17,1,100,79,69,29.84,29.76,29.68,10,10,10,23,12,29,0.00,6,,270
2012-12-11,35,26,17,28,21,12,93,82,74,29.81,29.65,29.48,10,10,10,16,6,,0.00,7,,220
2012-12-12,33,25,17,30,21,14,100,89,80,29.93,29.71,29.52,10,9,4,12,5,,0.00,6,,356
2012-12-13,33,25,17,30,21,12,100,89,79,29.96,29.91,29.83,10,5,0,9,4,,0.00,8,,20
2012-12-14,28,19,10,28,19,9,100,94,85,29.82,29.73,29.67,10,5,0,9,6,,0.00,5,,194
2012-12-15,24,17,10,21,15,7,100,92,80,29.85,29.80,29.74,10,6,0,6,2,,0.00,5,,290
2012-12-16,24,18,12,21,14,9,100,91,85,29.78,29.71,29.65,10,7,0,5,1,,0.00,6,,83
2012-12-17,26,14,1,21,11,-8,100,87,66,29.65,29.51,29.41,10,10,5,5,1,,0.00,3,,58
2012-12-18,33,22,12,28,17,7,100,82,69,29.75,29.56,29.43,10,8,0,21,9,28,0.00,4,,264
2012-12-19,17,6,-5,12,5,-9,100,83,72,30.09,29.98,29.76,10,8,2,18,9,22,0.00,4,,271
2012-12-20,21,8,-5,12,3,-17,100,84,55,30.08,30.05,30.01,10,10,10,8,5,,0.00,0,,207
2012-12-21,30,16,3,21,11,-4,100,82,64,30.07,30.00,29.95,10,10,10,16,4,21,0.00,0,,228
2012-12-22,10,6,1,7,2,-2,92,80,73,30.22,30.15,30.07,10,10,5,15,10,,0.00,3,,7
2012-12-23,10,0,-9,7,1,-17,100,82,71,30.15,30.09,30.05,10,8,1,12,5,,0.00,6,,86
2012-12-24,8,0,-9,3,-4,-18,100,82,65,30.42,30.27,30.14,10,8,0,8,2,,0.00,7,,3
2012-12-25,8,0,-9,7,-3,-15,100,83,66,30.46,30.37,30.24,10,7,1,7,2,,0.00,6,,342
2012-12-26,6,-2,-11,1,-7,-18,100,85,59,30.22,30.09,30.01,10,9,3,7,2,,0.00,5,,9
2012-12-27,10,0,-9,3,-3,-20,100,83,59,30.05,30.02,30.00,10,10,8,7,3,,0.00,5,,340
2012-12-28,12,0,-11,7,-4,-17,100,84,60,30.03,30.01,29.97,10,10,3,9,4,,0.00,3,,215
2012-12-29,24,12,0,18,12,-4,100,82,68,30.03,29.98,29.95,10,10,10,18,7,,0.00,3,,217
2012-12-30,24,14,3,21,14,0,100,83,73,30.13,30.04,29.95,10,10,2,18,5,18,0.00,6,,299
2012-12-31,21,16,12,19,14,9,93,86,73,30.13,30.09,30.05,10,8,1,8,3,,0.00,8,,33